sensor_id;sensor_type;location;lat;lon;timestamp;pressure;altitude;pressure_sealevel;temperature;humidity
70730;BME280;58315;53.336;55.932;2022-08-30T00:00:33;100053.97;;;22.55;44.32
70730;BME280;58315;53.336;55.932;2022-08-30T00:03:19;100057.50;;;22.49;44.33
70730;BME280;58315;53.336;55.932;2022-08-30T00:05:45;100051.28;;;22.42;44.31
70730;BME280;58315;53.336;55.932;2022-08-30T00:08:12;100055.63;;;22.43;44.35
70730;BME280;58315;53.336;55.932;2022-08-30T00:10:39;100059.16;;;22.43;44.47
70730;BME280;58315;53.336;55.932;2022-08-30T00:13:07;100063.28;;;22.39;44.55
70730;BME280;58315;53.336;55.932;2022-08-30T00:15:33;100064.72;;;22.35;44.74
70730;BME280;58315;53.336;55.932;2022-08-30T00:17:59;100068.66;;;22.32;44.83
70730;BME280;58315;53.336;55.932;2022-08-30T00:20:28;100071.13;;;22.34;45.04
70730;BME280;58315;53.336;55.932;2022-08-30T00:22:55;100070.69;;;22.24;45.05
70730;BME280;58315;53.336;55.932;2022-08-30T00:25:22;100069.25;;;22.21;44.93
70730;BME280;58315;53.336;55.932;2022-08-30T00:27:48;100065.03;;;22.12;45.74
70730;BME280;58315;53.336;55.932;2022-08-30T00:30:16;100067.66;;;21.92;45.98
70730;BME280;58315;53.336;55.932;2022-08-30T00:32:42;100067.41;;;21.80;45.93
70730;BME280;58315;53.336;55.932;2022-08-30T00:35:09;100068.00;;;21.76;46.21
70730;BME280;58315;53.336;55.932;2022-08-30T00:37:37;100063.16;;;21.64;46.28
70730;BME280;58315;53.336;55.932;2022-08-30T00:40:04;100061.19;;;21.45;46.68
70730;BME280;58315;53.336;55.932;2022-08-30T00:42:31;100066.53;;;21.38;47.28
70730;BME280;58315;53.336;55.932;2022-08-30T00:44:58;100063.41;;;21.35;46.89
70730;BME280;58315;53.336;55.932;2022-08-30T00:47:25;100070.28;;;21.16;47.52
70730;BME280;58315;53.336;55.932;2022-08-30T00:49:54;100071.69;;;21.12;47.52
70730;BME280;58315;53.336;55.932;2022-08-30T00:52:22;100069.59;;;21.07;47.33
70730;BME280;58315;53.336;55.932;2022-08-30T00:54:49;100065.88;;;21.08;47.46
70730;BME280;58315;53.336;55.932;2022-08-30T00:57:16;100081.13;;;21.01;47.58
70730;BME280;58315;53.336;55.932;2022-08-30T00:59:46;100082.31;;;20.99;47.67
70730;BME280;58315;53.336;55.932;2022-08-30T01:02:17;100081.88;;;20.95;47.68
70730;BME280;58315;53.336;55.932;2022-08-30T01:04:45;100077.31;;;20.89;48.06
70730;BME280;58315;53.336;55.932;2022-08-30T01:07:12;100078.72;;;20.85;47.91
70730;BME280;58315;53.336;55.932;2022-08-30T01:09:39;100078.66;;;20.78;47.87
70730;BME280;58315;53.336;55.932;2022-08-30T01:12:05;100086.84;;;20.70;48.02
70730;BME280;58315;53.336;55.932;2022-08-30T01:14:32;100085.81;;;20.71;48.31
70730;BME280;58315;53.336;55.932;2022-08-30T01:16:58;100081.66;;;20.68;48.19
70730;BME280;58315;53.336;55.932;2022-08-30T01:24:39;100087.72;;;20.56;48.46
70730;BME280;58315;53.336;55.932;2022-08-30T01:27:05;100091.34;;;20.48;48.95
70730;BME280;58315;53.336;55.932;2022-08-30T01:29:32;100084.50;;;20.45;48.61
70730;BME280;58315;53.336;55.932;2022-08-30T01:31:58;100092.66;;;20.52;48.78
70730;BME280;58315;53.336;55.932;2022-08-30T01:34:24;100096.53;;;20.50;48.89
70730;BME280;58315;53.336;55.932;2022-08-30T01:36:50;100101.53;;;20.53;48.43
70730;BME280;58315;53.336;55.932;2022-08-30T01:39:17;100102.91;;;20.48;48.90
70730;BME280;58315;53.336;55.932;2022-08-30T01:41:43;100106.59;;;20.47;48.71
70730;BME280;58315;53.336;55.932;2022-08-30T01:44:11;100110.13;;;20.48;49.04
70730;BME280;58315;53.336;55.932;2022-08-30T01:46:41;100100.94;;;20.57;48.65
70730;BME280;58315;53.336;55.932;2022-08-30T01:49:10;100103.84;;;20.56;49.14
70730;BME280;58315;53.336;55.932;2022-08-30T01:51:37;100102.56;;;20.52;48.98
70730;BME280;58315;53.336;55.932;2022-08-30T01:54:04;100101.69;;;20.51;48.61
70730;BME280;58315;53.336;55.932;2022-08-30T01:56:30;100102.16;;;20.55;48.21
70730;BME280;58315;53.336;55.932;2022-08-30T01:58:57;100095.84;;;20.47;48.31
70730;BME280;58315;53.336;55.932;2022-08-30T02:01:26;100097.47;;;20.42;48.69
70730;BME280;58315;53.336;55.932;2022-08-30T02:03:55;100097.91;;;20.45;48.33
70730;BME280;58315;53.336;55.932;2022-08-30T02:06:22;100103.38;;;20.52;48.34
70730;BME280;58315;53.336;55.932;2022-08-30T02:08:48;100107.16;;;20.58;48.43
70730;BME280;58315;53.336;55.932;2022-08-30T02:11:15;100112.88;;;20.55;48.34
70730;BME280;58315;53.336;55.932;2022-08-30T02:13:43;100113.00;;;20.46;48.44
70730;BME280;58315;53.336;55.932;2022-08-30T02:16:12;100118.19;;;20.48;48.57
70730;BME280;58315;53.336;55.932;2022-08-30T02:18:40;100120.34;;;20.38;48.71
70730;BME280;58315;53.336;55.932;2022-08-30T02:21:07;100115.78;;;20.38;48.58
70730;BME280;58315;53.336;55.932;2022-08-30T02:23:34;100119.22;;;20.32;48.83
70730;BME280;58315;53.336;55.932;2022-08-30T02:26:00;100125.72;;;20.23;49.55
70730;BME280;58315;53.336;55.932;2022-08-30T02:28:27;100122.41;;;20.06;49.73
70730;BME280;58315;53.336;55.932;2022-08-30T02:30:53;100121.34;;;20.01;50.06
70730;BME280;58315;53.336;55.932;2022-08-30T02:33:19;100112.63;;;19.98;50.17
70730;BME280;58315;53.336;55.932;2022-08-30T02:35:45;100117.41;;;20.03;50.03
70730;BME280;58315;53.336;55.932;2022-08-30T02:38:11;100122.88;;;20.10;50.22
70730;BME280;58315;53.336;55.932;2022-08-30T02:40:37;100119.00;;;20.12;50.27
70730;BME280;58315;53.336;55.932;2022-08-30T02:43:03;100120.28;;;20.16;50.08
70730;BME280;58315;53.336;55.932;2022-08-30T02:45:30;100123.75;;;20.32;49.77
70730;BME280;58315;53.336;55.932;2022-08-30T02:47:56;100116.91;;;20.44;49.23
70730;BME280;58315;53.336;55.932;2022-08-30T02:50:23;100121.97;;;20.54;49.17
70730;BME280;58315;53.336;55.932;2022-08-30T02:52:50;100129.66;;;20.57;49.40
70730;BME280;58315;53.336;55.932;2022-08-30T02:55:17;100119.16;;;20.62;49.32
70730;BME280;58315;53.336;55.932;2022-08-30T02:57:43;100112.22;;;20.67;49.19
70730;BME280;58315;53.336;55.932;2022-08-30T03:00:12;100114.25;;;20.87;48.65
70730;BME280;58315;53.336;55.932;2022-08-30T03:02:39;100114.69;;;20.90;48.98
70730;BME280;58315;53.336;55.932;2022-08-30T03:05:10;100112.59;;;21.07;48.39
70730;BME280;58315;53.336;55.932;2022-08-30T03:07:38;100116.75;;;21.10;48.32
70730;BME280;58315;53.336;55.932;2022-08-30T03:10:05;100118.03;;;21.20;48.40
70730;BME280;58315;53.336;55.932;2022-08-30T03:12:31;100118.19;;;21.34;48.20
70730;BME280;58315;53.336;55.932;2022-08-30T03:14:58;100109.41;;;21.47;47.81
70730;BME280;58315;53.336;55.932;2022-08-30T03:17:24;100115.28;;;21.63;47.70
70730;BME280;58315;53.336;55.932;2022-08-30T03:19:51;100110.59;;;21.72;47.28
70730;BME280;58315;53.336;55.932;2022-08-30T03:22:17;100120.16;;;21.81;47.30
70730;BME280;58315;53.336;55.932;2022-08-30T03:24:43;100115.25;;;21.91;47.13
70730;BME280;58315;53.336;55.932;2022-08-30T03:27:10;100119.84;;;22.04;47.13
70730;BME280;58315;53.336;55.932;2022-08-30T03:29:37;100122.13;;;22.07;46.80
70730;BME280;58315;53.336;55.932;2022-08-30T03:32:04;100122.84;;;22.16;46.75
70730;BME280;58315;53.336;55.932;2022-08-30T03:34:30;100118.75;;;22.27;46.73
70730;BME280;58315;53.336;55.932;2022-08-30T03:36:57;100124.75;;;22.29;46.39
70730;BME280;58315;53.336;55.932;2022-08-30T03:39:23;100125.78;;;22.28;46.45
70730;BME280;58315;53.336;55.932;2022-08-30T03:41:50;100123.13;;;22.34;46.14
70730;BME280;58315;53.336;55.932;2022-08-30T03:44:16;100129.56;;;22.47;46.12
70730;BME280;58315;53.336;55.932;2022-08-30T03:46:42;100120.69;;;22.59;45.63
70730;BME280;58315;53.336;55.932;2022-08-30T03:49:09;100126.31;;;22.78;45.92
70730;BME280;58315;53.336;55.932;2022-08-30T03:51:35;100119.34;;;23.30;45.86
70730;BME280;58315;53.336;55.932;2022-08-30T03:54:02;100116.41;;;24.68;44.43
70730;BME280;58315;53.336;55.932;2022-08-30T03:56:28;100120.59;;;26.26;42.84
70730;BME280;58315;53.336;55.932;2022-08-30T03:58:54;100124.09;;;27.63;40.86
70730;BME280;58315;53.336;55.932;2022-08-30T04:01:20;100117.56;;;28.69;38.16
70730;BME280;58315;53.336;55.932;2022-08-30T04:03:46;100123.47;;;29.84;36.92
70730;BME280;58315;53.336;55.932;2022-08-30T04:06:12;100117.97;;;30.71;35.61
70730;BME280;58315;53.336;55.932;2022-08-30T04:08:38;100121.94;;;31.50;34.45
70730;BME280;58315;53.336;55.932;2022-08-30T04:11:05;100118.72;;;32.16;32.46
70730;BME280;58315;53.336;55.932;2022-08-30T04:13:32;100123.25;;;32.83;31.83
70730;BME280;58315;53.336;55.932;2022-08-30T04:15:58;100126.03;;;33.14;30.38
70730;BME280;58315;53.336;55.932;2022-08-30T04:18:24;100127.78;;;34.05;30.70
70730;BME280;58315;53.336;55.932;2022-08-30T04:20:51;100126.53;;;34.32;29.35
70730;BME280;58315;53.336;55.932;2022-08-30T04:23:17;100125.59;;;34.57;28.86
70730;BME280;58315;53.336;55.932;2022-08-30T04:25:44;100118.88;;;34.78;27.73
70730;BME280;58315;53.336;55.932;2022-08-30T04:28:10;100125.91;;;35.24;28.54
70730;BME280;58315;53.336;55.932;2022-08-30T04:30:42;100119.50;;;35.63;26.53
70730;BME280;58315;53.336;55.932;2022-08-30T04:33:09;100125.59;;;36.08;26.76
70730;BME280;58315;53.336;55.932;2022-08-30T04:35:38;100126.34;;;36.32;27.33
70730;BME280;58315;53.336;55.932;2022-08-30T04:38:04;100134.53;;;36.94;26.70
70730;BME280;58315;53.336;55.932;2022-08-30T04:40:30;100127.03;;;36.81;26.29
70730;BME280;58315;53.336;55.932;2022-08-30T04:42:56;100127.56;;;37.02;25.45
70730;BME280;58315;53.336;55.932;2022-08-30T04:45:24;100132.38;;;37.56;25.36
70730;BME280;58315;53.336;55.932;2022-08-30T04:47:50;100124.91;;;37.57;25.43
70730;BME280;58315;53.336;55.932;2022-08-30T04:50:18;100128.59;;;37.66;25.14
70730;BME280;58315;53.336;55.932;2022-08-30T04:52:45;100127.38;;;37.86;25.46
70730;BME280;58315;53.336;55.932;2022-08-30T04:55:12;100117.53;;;38.21;24.57
70730;BME280;58315;53.336;55.932;2022-08-30T04:57:39;100124.72;;;37.95;24.88
70730;BME280;58315;53.336;55.932;2022-08-30T05:00:09;100121.88;;;38.50;24.11
70730;BME280;58315;53.336;55.932;2022-08-30T05:02:37;100117.03;;;38.69;24.11
70730;BME280;58315;53.336;55.932;2022-08-30T05:05:04;100117.16;;;38.87;23.71
70730;BME280;58315;53.336;55.932;2022-08-30T05:07:48;100110.00;;;38.86;23.28
70730;BME280;58315;53.336;55.932;2022-08-30T05:10:15;100116.50;;;38.45;24.14
70730;BME280;58315;53.336;55.932;2022-08-30T05:12:41;100109.56;;;39.23;23.80
70730;BME280;58315;53.336;55.932;2022-08-30T05:15:09;100111.16;;;39.69;23.57
70730;BME280;58315;53.336;55.932;2022-08-30T05:17:37;100111.38;;;39.99;23.03
70730;BME280;58315;53.336;55.932;2022-08-30T05:20:04;100110.22;;;40.00;22.34
70730;BME280;58315;53.336;55.932;2022-08-30T05:22:30;100116.44;;;39.97;21.90
70730;BME280;58315;53.336;55.932;2022-08-30T05:24:56;100117.41;;;40.01;22.50
70730;BME280;58315;53.336;55.932;2022-08-30T05:27:22;100113.84;;;40.09;22.80
70730;BME280;58315;53.336;55.932;2022-08-30T05:29:48;100102.78;;;40.09;22.28
70730;BME280;58315;53.336;55.932;2022-08-30T05:32:14;100119.75;;;40.16;22.58
70730;BME280;58315;53.336;55.932;2022-08-30T05:34:40;100113.88;;;40.44;22.03
70730;BME280;58315;53.336;55.932;2022-08-30T05:37:06;100115.38;;;40.50;22.51
70730;BME280;58315;53.336;55.932;2022-08-30T05:39:32;100115.88;;;40.69;22.52
70730;BME280;58315;53.336;55.932;2022-08-30T05:41:58;100113.06;;;40.95;21.81
70730;BME280;58315;53.336;55.932;2022-08-30T05:44:25;100117.13;;;41.15;21.47
70730;BME280;58315;53.336;55.932;2022-08-30T05:46:51;100103.81;;;41.00;21.70
70730;BME280;58315;53.336;55.932;2022-08-30T05:49:17;100111.53;;;41.33;21.43
70730;BME280;58315;53.336;55.932;2022-08-30T05:51:43;100106.25;;;40.76;21.61
70730;BME280;58315;53.336;55.932;2022-08-30T05:54:11;100106.44;;;40.70;21.84
70730;BME280;58315;53.336;55.932;2022-08-30T05:56:39;100105.25;;;40.89;21.68
70730;BME280;58315;53.336;55.932;2022-08-30T05:59:07;100101.22;;;40.78;21.70
70730;BME280;58315;53.336;55.932;2022-08-30T06:01:37;100098.03;;;39.92;22.05
70730;BME280;58315;53.336;55.932;2022-08-30T06:04:06;100093.28;;;39.13;22.42
70730;BME280;58315;53.336;55.932;2022-08-30T06:06:36;100091.00;;;38.84;22.70
70730;BME280;58315;53.336;55.932;2022-08-30T06:09:04;100085.75;;;38.38;23.27
70730;BME280;58315;53.336;55.932;2022-08-30T06:11:31;100079.78;;;37.80;23.59
70730;BME280;58315;53.336;55.932;2022-08-30T06:14:00;100091.47;;;37.17;24.60
70730;BME280;58315;53.336;55.932;2022-08-30T06:16:27;100082.78;;;36.20;25.27
70730;BME280;58315;53.336;55.932;2022-08-30T06:18:55;100085.97;;;35.37;25.93
70730;BME280;58315;53.336;55.932;2022-08-30T06:21:29;100082.41;;;34.73;26.83
70730;BME280;58315;53.336;55.932;2022-08-30T06:23:56;100081.13;;;34.16;27.38
70730;BME280;58315;53.336;55.932;2022-08-30T06:26:23;100083.97;;;33.90;27.92
70730;BME280;58315;53.336;55.932;2022-08-30T06:28:49;100082.41;;;33.64;28.05
70730;BME280;58315;53.336;55.932;2022-08-30T06:31:17;100082.47;;;33.23;28.58
70730;BME280;58315;53.336;55.932;2022-08-30T06:33:44;100083.31;;;33.08;28.42
70730;BME280;58315;53.336;55.932;2022-08-30T06:36:13;100080.03;;;33.01;28.47
70730;BME280;58315;53.336;55.932;2022-08-30T06:38:40;100079.47;;;32.63;29.28
70730;BME280;58315;53.336;55.932;2022-08-30T06:41:10;100079.75;;;32.51;29.18
70730;BME280;58315;53.336;55.932;2022-08-30T06:43:36;100075.66;;;32.69;29.61
70730;BME280;58315;53.336;55.932;2022-08-30T06:46:13;100080.31;;;33.04;29.04
70730;BME280;58315;53.336;55.932;2022-08-30T06:48:39;100079.22;;;33.21;28.76
70730;BME280;58315;53.336;55.932;2022-08-30T06:51:08;100081.91;;;33.36;28.59
70730;BME280;58315;53.336;55.932;2022-08-30T06:53:35;100073.75;;;33.21;28.71
70730;BME280;58315;53.336;55.932;2022-08-30T06:56:06;100071.53;;;33.12;28.76
70730;BME280;58315;53.336;55.932;2022-08-30T06:58:35;100070.72;;;33.12;29.20
70730;BME280;58315;53.336;55.932;2022-08-30T07:01:04;100070.72;;;33.12;29.34
70730;BME280;58315;53.336;55.932;2022-08-30T07:03:30;100068.81;;;33.18;28.94
70730;BME280;58315;53.336;55.932;2022-08-30T07:05:57;100061.13;;;33.25;28.91
70730;BME280;58315;53.336;55.932;2022-08-30T07:08:24;100064.13;;;33.28;29.01
70730;BME280;58315;53.336;55.932;2022-08-30T07:10:51;100057.84;;;33.23;28.41
70730;BME280;58315;53.336;55.932;2022-08-30T07:13:19;100057.88;;;32.92;28.94
70730;BME280;58315;53.336;55.932;2022-08-30T07:15:46;100058.41;;;32.79;28.98
70730;BME280;58315;53.336;55.932;2022-08-30T07:18:13;100052.66;;;32.75;28.98
70730;BME280;58315;53.336;55.932;2022-08-30T07:21:04;100058.41;;;32.48;29.60
70730;BME280;58315;53.336;55.932;2022-08-30T07:23:30;100061.59;;;32.25;29.63
70730;BME280;58315;53.336;55.932;2022-08-30T07:25:56;100055.59;;;32.23;30.19
70730;BME280;58315;53.336;55.932;2022-08-30T07:28:22;100051.75;;;32.18;30.39
70730;BME280;58315;53.336;55.932;2022-08-30T07:30:48;100053.41;;;32.20;30.30
70730;BME280;58315;53.336;55.932;2022-08-30T07:33:14;100046.03;;;32.25;30.16
70730;BME280;58315;53.336;55.932;2022-08-30T07:35:42;100045.78;;;32.37;29.77
70730;BME280;58315;53.336;55.932;2022-08-30T07:38:12;100043.38;;;32.56;30.09
70730;BME280;58315;53.336;55.932;2022-08-30T07:40:39;100045.03;;;32.62;30.05
70730;BME280;58315;53.336;55.932;2022-08-30T07:43:05;100041.47;;;32.77;29.92
70730;BME280;58315;53.336;55.932;2022-08-30T07:45:36;100044.47;;;32.96;29.38
70730;BME280;58315;53.336;55.932;2022-08-30T07:48:02;100036.81;;;32.98;29.58
70730;BME280;58315;53.336;55.932;2022-08-30T07:50:29;100036.81;;;32.98;29.27
70730;BME280;58315;53.336;55.932;2022-08-30T07:52:55;100036.81;;;32.98;29.57
70730;BME280;58315;53.336;55.932;2022-08-30T07:55:21;100036.78;;;32.93;29.63
70730;BME280;58315;53.336;55.932;2022-08-30T07:57:47;100038.16;;;32.90;28.85
70730;BME280;58315;53.336;55.932;2022-08-30T08:00:13;100034.31;;;32.86;29.16
70730;BME280;58315;53.336;55.932;2022-08-30T08:02:40;100034.88;;;32.88;29.08
70730;BME280;58315;53.336;55.932;2022-08-30T08:05:07;100041.44;;;32.87;28.83
70730;BME280;58315;53.336;55.932;2022-08-30T08:07:34;100033.50;;;32.85;28.96
70730;BME280;58315;53.336;55.932;2022-08-30T08:10:01;100031.06;;;32.84;29.16
70730;BME280;58315;53.336;55.932;2022-08-30T08:12:27;100025.03;;;32.82;28.41
70730;BME280;58315;53.336;55.932;2022-08-30T08:14:53;100032.13;;;32.83;28.62
70730;BME280;58315;53.336;55.932;2022-08-30T08:17:19;100030.47;;;32.87;28.37
70730;BME280;58315;53.336;55.932;2022-08-30T08:19:45;100021.19;;;32.98;28.34
70730;BME280;58315;53.336;55.932;2022-08-30T08:22:11;100026.94;;;33.17;28.84
70730;BME280;58315;53.336;55.932;2022-08-30T08:24:37;100018.97;;;33.16;28.32
70730;BME280;58315;53.336;55.932;2022-08-30T08:27:03;100016.19;;;33.36;28.65
70730;BME280;58315;53.336;55.932;2022-08-30T08:29:29;100020.78;;;33.56;28.95
70730;BME280;58315;53.336;55.932;2022-08-30T08:31:55;100016.63;;;33.74;28.35
70730;BME280;58315;53.336;55.932;2022-08-30T08:34:22;100015.75;;;33.83;27.50
70730;BME280;58315;53.336;55.932;2022-08-30T08:36:49;100009.38;;;33.93;27.00
70730;BME280;58315;53.336;55.932;2022-08-30T08:39:16;100012.63;;;34.05;27.38
70730;BME280;58315;53.336;55.932;2022-08-30T08:42:15;100010.28;;;34.28;26.74
70730;BME280;58315;53.336;55.932;2022-08-30T08:44:49;100006.50;;;34.24;26.57
70730;BME280;58315;53.336;55.932;2022-08-30T08:49:54;100000.00;;;34.49;26.21
70730;BME280;58315;53.336;55.932;2022-08-30T08:52:28;100007.31;;;34.59;26.24
70730;BME280;58315;53.336;55.932;2022-08-30T08:55:17;100001.25;;;34.67;25.44
70730;BME280;58315;53.336;55.932;2022-08-30T08:57:45;100006.56;;;34.53;25.97
70730;BME280;58315;53.336;55.932;2022-08-30T09:00:13;100004.81;;;34.67;25.91
70730;BME280;58315;53.336;55.932;2022-08-30T09:03:13;100005.81;;;34.37;25.58
70730;BME280;58315;53.336;55.932;2022-08-30T09:05:37;100005.75;;;34.52;25.92
70730;BME280;58315;53.336;55.932;2022-08-30T09:08:07;100004.50;;;34.69;25.81
70730;BME280;58315;53.336;55.932;2022-08-30T09:10:34;100004.66;;;34.83;25.66
70730;BME280;58315;53.336;55.932;2022-08-30T09:13:00;100002.63;;;34.93;25.87
70730;BME280;58315;53.336;55.932;2022-08-30T09:15:29;99997.66;;;34.95;25.30
70730;BME280;58315;53.336;55.932;2022-08-30T09:18:06;100002.56;;;34.98;25.32
70730;BME280;58315;53.336;55.932;2022-08-30T09:20:39;99990.06;;;34.87;25.52
70730;BME280;58315;53.336;55.932;2022-08-30T09:28:28;99988.34;;;34.96;25.80
70730;BME280;58315;53.336;55.932;2022-08-30T09:31:04;99988.66;;;34.90;25.68
70730;BME280;58315;53.336;55.932;2022-08-30T09:33:31;99970.56;;;34.89;25.57
70730;BME280;58315;53.336;55.932;2022-08-30T09:36:12;99975.19;;;34.93;25.36
70730;BME280;58315;53.336;55.932;2022-08-30T09:38:38;99972.47;;;34.59;25.07
70730;BME280;58315;53.336;55.932;2022-08-30T09:41:43;99971.25;;;34.41;24.38
70730;BME280;58315;53.336;55.932;2022-08-30T09:44:33;99968.22;;;34.08;24.78
70730;BME280;58315;53.336;55.932;2022-08-30T09:47:02;99964.50;;;33.84;25.21
70730;BME280;58315;53.336;55.932;2022-08-30T09:49:30;99964.81;;;33.77;25.22
70730;BME280;58315;53.336;55.932;2022-08-30T09:52:31;99972.69;;;33.89;24.78
70730;BME280;58315;53.336;55.932;2022-08-30T10:01:23;99961.06;;;34.13;24.54
70730;BME280;58315;53.336;55.932;2022-08-30T10:17:37;99957.16;;;34.19;24.41
70730;BME280;58315;53.336;55.932;2022-08-30T10:22:49;99949.16;;;34.27;23.91
70730;BME280;58315;53.336;55.932;2022-08-30T10:25:19;99945.59;;;34.27;23.11
70730;BME280;58315;53.336;55.932;2022-08-30T10:27:54;99945.09;;;34.20;23.13
70730;BME280;58315;53.336;55.932;2022-08-30T10:30:21;99937.84;;;34.00;23.19
70730;BME280;58315;53.336;55.932;2022-08-30T10:33:04;99934.53;;;34.03;23.41
70730;BME280;58315;53.336;55.932;2022-08-30T10:35:56;99934.81;;;34.01;22.97
70730;BME280;58315;53.336;55.932;2022-08-30T10:38:32;99924.38;;;33.98;22.64
70730;BME280;58315;53.336;55.932;2022-08-30T10:44:00;99924.59;;;34.12;23.16
70730;BME280;58315;53.336;55.932;2022-08-30T10:49:41;99923.84;;;34.01;22.91
70730;BME280;58315;53.336;55.932;2022-08-30T10:55:18;99919.44;;;34.05;22.90
70730;BME280;58315;53.336;55.932;2022-08-30T10:57:47;99906.88;;;33.99;22.90
70730;BME280;58315;53.336;55.932;2022-08-30T11:00:26;99906.84;;;34.04;22.77
70730;BME280;58315;53.336;55.932;2022-08-30T11:08:49;99904.88;;;34.10;23.22
70730;BME280;58315;53.336;55.932;2022-08-30T11:11:30;99900.56;;;33.99;23.19
70730;BME280;58315;53.336;55.932;2022-08-30T11:14:03;99899.84;;;33.83;23.28
70730;BME280;58315;53.336;55.932;2022-08-30T11:16:41;99898.91;;;33.98;23.28
70730;BME280;58315;53.336;55.932;2022-08-30T11:19:35;99900.28;;;33.95;22.96
70730;BME280;58315;53.336;55.932;2022-08-30T11:22:15;99900.34;;;33.90;23.43
70730;BME280;58315;53.336;55.932;2022-08-30T11:25:09;99890.94;;;33.96;23.53
70730;BME280;58315;53.336;55.932;2022-08-30T11:27:55;99886.03;;;33.93;23.64
70730;BME280;58315;53.336;55.932;2022-08-30T11:30:49;99883.25;;;34.03;23.52
70730;BME280;58315;53.336;55.932;2022-08-30T11:33:51;99883.22;;;34.08;23.44
70730;BME280;58315;53.336;55.932;2022-08-30T11:45:43;99871.41;;;34.42;23.57
70730;BME280;58315;53.336;55.932;2022-08-30T11:48:41;99875.28;;;34.36;23.84
70730;BME280;58315;53.336;55.932;2022-08-30T11:57:57;99860.91;;;34.49;23.07
70730;BME280;58315;53.336;55.932;2022-08-30T12:04:11;99860.88;;;34.54;23.11
70730;BME280;58315;53.336;55.932;2022-08-30T12:07:08;99856.53;;;34.48;23.41
70730;BME280;58315;53.336;55.932;2022-08-30T12:12:03;99847.88;;;34.36;23.21
70730;BME280;58315;53.336;55.932;2022-08-30T12:14:34;99840.63;;;34.50;23.05
70730;BME280;58315;53.336;55.932;2022-08-30T12:17:09;99838.66;;;34.27;23.28
70730;BME280;58315;53.336;55.932;2022-08-30T12:19:59;99839.22;;;34.24;23.16
70730;BME280;58315;53.336;55.932;2022-08-30T12:22:25;99837.69;;;34.13;23.19
70730;BME280;58315;53.336;55.932;2022-08-30T12:24:55;99831.72;;;34.05;23.12
70730;BME280;58315;53.336;55.932;2022-08-30T12:27:30;99832.13;;;34.18;23.24
70730;BME280;58315;53.336;55.932;2022-08-30T12:30:05;99828.59;;;34.17;23.47
70730;BME280;58315;53.336;55.932;2022-08-30T12:32:44;99828.75;;;34.26;23.21
70730;BME280;58315;53.336;55.932;2022-08-30T12:35:19;99822.44;;;34.30;23.32
70730;BME280;58315;53.336;55.932;2022-08-30T12:38:01;99825.34;;;34.39;23.56
70730;BME280;58315;53.336;55.932;2022-08-30T12:40:31;99821.81;;;34.33;23.60
70730;BME280;58315;53.336;55.932;2022-08-30T12:43:20;99817.69;;;34.36;23.47
70730;BME280;58315;53.336;55.932;2022-08-30T12:45:47;99812.22;;;34.36;23.08
70730;BME280;58315;53.336;55.932;2022-08-30T12:48:16;99818.56;;;34.31;23.38
70730;BME280;58315;53.336;55.932;2022-08-30T12:53:36;99814.69;;;34.38;23.61
70730;BME280;58315;53.336;55.932;2022-08-30T12:56:07;99811.00;;;34.23;23.39
70730;BME280;58315;53.336;55.932;2022-08-30T13:01:28;99802.75;;;34.23;23.58
70730;BME280;58315;53.336;55.932;2022-08-30T13:04:11;99805.28;;;34.15;23.93
70730;BME280;58315;53.336;55.932;2022-08-30T13:06:56;99794.97;;;34.06;25.33
70730;BME280;58315;53.336;55.932;2022-08-30T13:09:37;99793.09;;;33.97;25.04
70730;BME280;58315;53.336;55.932;2022-08-30T13:12:08;99785.56;;;33.83;25.77
70730;BME280;58315;53.336;55.932;2022-08-30T13:17:21;99784.38;;;33.90;25.08
70730;BME280;58315;53.336;55.932;2022-08-30T13:20:28;99776.91;;;34.05;26.61
70730;BME280;58315;53.336;55.932;2022-08-30T13:23:02;99779.22;;;33.88;24.61
70730;BME280;58315;53.336;55.932;2022-08-30T13:25:29;99776.06;;;33.71;24.68
70730;BME280;58315;53.336;55.932;2022-08-30T13:27:55;99773.88;;;33.73;26.93
70730;BME280;58315;53.336;55.932;2022-08-30T13:30:22;99774.19;;;33.66;26.17
70730;BME280;58315;53.336;55.932;2022-08-30T13:32:48;99766.28;;;33.65;25.95
70730;BME280;58315;53.336;55.932;2022-08-30T13:35:14;99761.13;;;33.58;25.48
70730;BME280;58315;53.336;55.932;2022-08-30T13:37:41;99762.81;;;33.49;26.63
70730;BME280;58315;53.336;55.932;2022-08-30T13:40:10;99763.47;;;33.35;25.84
70730;BME280;58315;53.336;55.932;2022-08-30T13:42:36;99758.06;;;33.20;26.81
70730;BME280;58315;53.336;55.932;2022-08-30T13:45:06;99753.44;;;33.16;29.29
70730;BME280;58315;53.336;55.932;2022-08-30T13:47:32;99746.16;;;33.01;27.73
70730;BME280;58315;53.336;55.932;2022-08-30T13:49:58;99744.78;;;32.93;26.81
70730;BME280;58315;53.336;55.932;2022-08-30T13:52:24;99746.75;;;32.87;27.47
70730;BME280;58315;53.336;55.932;2022-08-30T13:54:52;99741.59;;;32.81;29.83
70730;BME280;58315;53.336;55.932;2022-08-30T13:57:21;99747.38;;;32.74;27.98
70730;BME280;58315;53.336;55.932;2022-08-30T13:59:47;99736.19;;;32.60;27.94
70730;BME280;58315;53.336;55.932;2022-08-30T14:02:13;99740.38;;;32.48;28.37
70730;BME280;58315;53.336;55.932;2022-08-30T14:04:39;99733.00;;;32.28;27.14
70730;BME280;58315;53.336;55.932;2022-08-30T14:07:05;99726.47;;;32.24;27.49
70730;BME280;58315;53.336;55.932;2022-08-30T14:09:34;99730.59;;;32.16;27.46
70730;BME280;58315;53.336;55.932;2022-08-30T14:12:00;99735.78;;;32.12;27.67
70730;BME280;58315;53.336;55.932;2022-08-30T14:14:26;99722.44;;;32.01;28.18
70730;BME280;58315;53.336;55.932;2022-08-30T14:16:52;99715.63;;;31.93;28.25